AZU4256 SBCF-SBCY
Flight info
| Callsign | AZU4256 |
|---|---|
| Flight time | N/A |
| Altitude | 38000 |
| Route | MIMIP UZ8 MABMA |
| Aircraft | A20N/M-SDE2E3FGHIRWXY/LB1 |
Departure
| Time | 2026-04-28 03:22 |
|---|---|
| Airport | Tancredo Neves International Airport (SBCF) |
Arrival
| Time | N/A |
|---|---|
| Airport | Várzea Grande–Marechal Rondon International Airport (SBCY) |
| Time | Latitude | Longitude | Altitude | Speed | Heading |
|---|---|---|---|---|---|
| 2026-04-28 03:10 | -19.63406 | -43.96367 | 2757 ft | 2 kts | 304° |
| 2026-04-28 03:11 | -19.63414 | -43.96354 | 2757 ft | 2 kts | 301° |
| 2026-04-28 03:11 | -19.63422 | -43.96341 | 2757 ft | 1 kts | 302° |
| 2026-04-28 03:11 | -19.63423 | -43.96338 | 2757 ft | 0 kts | 302° |
| 2026-04-28 03:13 | -19.63423 | -43.96339 | 2757 ft | 0 kts | 302° |
| 2026-04-28 03:14 | -19.63420 | -43.96344 | 2757 ft | 1 kts | 302° |
| 2026-04-28 03:14 | -19.63406 | -43.96367 | 2757 ft | 6 kts | 302° |
| 2026-04-28 03:14 | -19.63371 | -43.96424 | 2757 ft | 11 kts | 308° |
| 2026-04-28 03:14 | -19.63299 | -43.96498 | 2757 ft | 15 kts | 319° |
| 2026-04-28 03:15 | -19.63216 | -43.96569 | 2757 ft | 15 kts | 321° |
| 2026-04-28 03:15 | -19.63215 | -43.96655 | 2758 ft | 12 kts | 230° |
| 2026-04-28 03:15 | -19.63267 | -43.96728 | 2758 ft | 10 kts | 264° |
| 2026-04-28 03:15 | -19.63223 | -43.96795 | 2758 ft | 11 kts | 306° |
| 2026-04-28 03:16 | -19.63167 | -43.96850 | 2758 ft | 10 kts | 319° |
| 2026-04-28 03:16 | -19.63110 | -43.96903 | 2758 ft | 10 kts | 319° |
| 2026-04-28 03:16 | -19.63055 | -43.96953 | 2758 ft | 10 kts | 319° |
| 2026-04-28 03:16 | -19.62996 | -43.97008 | 2758 ft | 12 kts | 319° |
| 2026-04-28 03:17 | -19.62929 | -43.97071 | 2758 ft | 12 kts | 320° |
| 2026-04-28 03:17 | -19.62799 | -43.97191 | 2758 ft | 12 kts | 319° |
| 2026-04-28 03:17 | -19.62734 | -43.97252 | 2758 ft | 12 kts | 319° |
| 2026-04-28 03:18 | -19.62666 | -43.97315 | 2758 ft | 13 kts | 319° |
| 2026-04-28 03:18 | -19.62594 | -43.97382 | 2758 ft | 13 kts | 319° |
| 2026-04-28 03:18 | -19.62520 | -43.97450 | 2758 ft | 14 kts | 319° |
| 2026-04-28 03:18 | -19.62444 | -43.97520 | 2758 ft | 14 kts | 318° |
| 2026-04-28 03:19 | -19.62365 | -43.97594 | 2758 ft | 15 kts | 319° |
| 2026-04-28 03:19 | -19.62295 | -43.97659 | 2758 ft | 8 kts | 319° |
| 2026-04-28 03:19 | -19.62263 | -43.97688 | 2758 ft | 5 kts | 319° |
| 2026-04-28 03:19 | -19.62236 | -43.97726 | 2758 ft | 6 kts | 281° |
| 2026-04-28 03:20 | -19.62259 | -43.97772 | 2758 ft | 7 kts | 230° |
| 2026-04-28 03:20 | -19.62309 | -43.97794 | 2758 ft | 8 kts | 187° |
| 2026-04-28 03:20 | -19.62372 | -43.97803 | 2758 ft | 9 kts | 186° |
| 2026-04-28 03:20 | -19.62410 | -43.97770 | 2758 ft | 4 kts | 137° |
| 2026-04-28 03:21 | -19.62481 | -43.97712 | 2758 ft | 39 kts | 141° |
| 2026-04-28 03:21 | -19.62884 | -43.97341 | 2758 ft | 110 kts | 139° |
| 2026-04-28 03:21 | -19.63627 | -43.96655 | 2771 ft | 166 kts | 139° |
| 2026-04-28 03:21 | -19.64518 | -43.95844 | 3294 ft | 172 kts | 139° |
| 2026-04-28 03:22 | -19.65448 | -43.94982 | 3752 ft | 186 kts | 138° |
| 2026-04-28 03:22 | -19.66477 | -43.94027 | 4140 ft | 206 kts | 138° |
| 2026-04-28 03:22 | -19.67601 | -43.92988 | 4580 ft | 224 kts | 138° |
| 2026-04-28 03:22 | -19.68845 | -43.91940 | 5310 ft | 230 kts | 152° |
| 2026-04-28 03:23 | -19.70410 | -43.91543 | 5971 ft | 242 kts | 183° |
| 2026-04-28 03:23 | -19.72026 | -43.92146 | 6460 ft | 262 kts | 218° |
| 2026-04-28 03:23 | -19.73123 | -43.93773 | 6970 ft | 281 kts | 253° |
| 2026-04-28 03:23 | -19.73217 | -43.95832 | 7682 ft | 288 kts | 280° |
| 2026-04-28 03:24 | -19.72755 | -43.97883 | 8565 ft | 291 kts | 286° |
| 2026-04-28 03:24 | -19.72201 | -43.99954 | 9443 ft | 294 kts | 286° |
| 2026-04-28 03:24 | -19.71657 | -44.02078 | 10305 ft | 298 kts | 285° |
| 2026-04-28 03:24 | -19.71142 | -44.04218 | 10947 ft | 309 kts | 284° |
| 2026-04-28 03:25 | -19.70617 | -44.06521 | 11428 ft | 325 kts | 284° |
| 2026-04-28 03:25 | -19.70096 | -44.08882 | 12102 ft | 332 kts | 283° |
| 2026-04-28 03:25 | -19.69574 | -44.11301 | 12830 ft | 336 kts | 283° |
| 2026-04-28 03:25 | -19.69057 | -44.13724 | 13503 ft | 339 kts | 284° |
| 2026-04-28 03:26 | -19.68537 | -44.16163 | 14166 ft | 342 kts | 284° |
| 2026-04-28 03:26 | -19.68010 | -44.18647 | 14857 ft | 345 kts | 284° |
| 2026-04-28 03:26 | -19.67476 | -44.21160 | 15538 ft | 347 kts | 284° |
| 2026-04-28 03:26 | -19.66946 | -44.23652 | 16188 ft | 349 kts | 284° |
| 2026-04-28 03:27 | -19.66413 | -44.26162 | 16822 ft | 351 kts | 284° |
| 2026-04-28 03:27 | -19.65875 | -44.28695 | 17435 ft | 354 kts | 284° |
| 2026-04-28 03:27 | -19.65326 | -44.31278 | 18050 ft | 356 kts | 284° |
| 2026-04-28 03:27 | -19.64778 | -44.33852 | 18641 ft | 359 kts | 284° |
| 2026-04-28 03:28 | -19.64227 | -44.36441 | 19208 ft | 362 kts | 284° |
| 2026-04-28 03:28 | -19.63672 | -44.39041 | 19764 ft | 366 kts | 284° |
| 2026-04-28 03:28 | -19.63108 | -44.41689 | 20324 ft | 368 kts | 285° |
| 2026-04-28 03:28 | -19.62536 | -44.44371 | 20880 ft | 371 kts | 285° |
| 2026-04-28 03:29 | -19.61968 | -44.47031 | 21419 ft | 374 kts | 285° |
| 2026-04-28 03:29 | -19.61385 | -44.49754 | 21957 ft | 377 kts | 285° |
| 2026-04-28 03:29 | -19.60807 | -44.52462 | 22498 ft | 379 kts | 285° |
| 2026-04-28 03:29 | -19.60217 | -44.55213 | 23055 ft | 381 kts | 285° |
| 2026-04-28 03:30 | -19.59633 | -44.57935 | 23613 ft | 383 kts | 285° |
| 2026-04-28 03:30 | -19.59043 | -44.60683 | 24173 ft | 384 kts | 285° |
| 2026-04-28 03:30 | -19.58445 | -44.63475 | 24721 ft | 386 kts | 285° |
| 2026-04-28 03:30 | -19.57847 | -44.66259 | 25259 ft | 388 kts | 285° |
| 2026-04-28 03:31 | -19.57252 | -44.69031 | 25781 ft | 390 kts | 285° |
| 2026-04-28 03:31 | -19.56651 | -44.71835 | 26296 ft | 392 kts | 285° |
| 2026-04-28 03:31 | -19.56045 | -44.74654 | 26800 ft | 394 kts | 285° |
| 2026-04-28 03:31 | -19.55433 | -44.77500 | 27299 ft | 396 kts | 285° |
| 2026-04-28 03:32 | -19.54820 | -44.80343 | 27793 ft | 397 kts | 285° |
| 2026-04-28 03:32 | -19.54203 | -44.83203 | 28278 ft | 399 kts | 285° |
| 2026-04-28 03:32 | -19.53574 | -44.86078 | 28766 ft | 400 kts | 286° |
| 2026-04-28 03:32 | -19.52840 | -44.88887 | 29226 ft | 401 kts | 289° |
| 2026-04-28 03:33 | -19.51953 | -44.91697 | 29642 ft | 403 kts | 291° |
| 2026-04-28 03:33 | -19.51020 | -44.94508 | 30039 ft | 406 kts | 291° |
| 2026-04-28 03:33 | -19.50087 | -44.97311 | 30414 ft | 409 kts | 291° |
| 2026-04-28 03:33 | -19.49131 | -45.00180 | 30793 ft | 411 kts | 291° |
| 2026-04-28 03:34 | -19.48172 | -45.03057 | 31163 ft | 414 kts | 291° |
| 2026-04-28 03:34 | -19.47222 | -45.05909 | 31560 ft | 415 kts | 291° |
| 2026-04-28 03:34 | -19.46260 | -45.08795 | 32064 ft | 413 kts | 291° |
| 2026-04-28 03:34 | -19.45305 | -45.11657 | 32569 ft | 411 kts | 291° |
| 2026-04-28 03:35 | -19.44354 | -45.14510 | 33045 ft | 410 kts | 291° |
| 2026-04-28 03:35 | -19.43413 | -45.17326 | 33543 ft | 409 kts | 291° |
| 2026-04-28 03:35 | -19.42463 | -45.20168 | 34047 ft | 407 kts | 290° |
| 2026-04-28 03:35 | -19.41518 | -45.22993 | 34538 ft | 405 kts | 290° |
| 2026-04-28 03:36 | -19.40591 | -45.25766 | 34971 ft | 404 kts | 290° |
| 2026-04-28 03:36 | -19.39652 | -45.28569 | 35402 ft | 402 kts | 290° |
| 2026-04-28 03:36 | -19.38719 | -45.31358 | 35823 ft | 400 kts | 290° |
| 2026-04-28 03:36 | -19.37797 | -45.34110 | 36186 ft | 400 kts | 290° |
| 2026-04-28 03:37 | -19.36866 | -45.36892 | 36504 ft | 400 kts | 290° |
| 2026-04-28 03:37 | -19.35935 | -45.39668 | 36761 ft | 401 kts | 290° |
| 2026-04-28 03:37 | -19.34999 | -45.42459 | 36988 ft | 402 kts | 290° |
| 2026-04-28 03:37 | -19.34073 | -45.45216 | 37219 ft | 403 kts | 290° |
| 2026-04-28 03:38 | -19.33131 | -45.48021 | 37440 ft | 404 kts | 290° |
| 2026-04-28 03:38 | -19.32180 | -45.50842 | 37639 ft | 405 kts | 290° |
| 2026-04-28 03:38 | -19.31230 | -45.53655 | 37828 ft | 407 kts | 290° |
| 2026-04-28 03:38 | -19.30290 | -45.56444 | 38030 ft | 407 kts | 290° |
| 2026-04-28 03:39 | -19.28386 | -45.62085 | 38105 ft | 409 kts | 290° |
| 2026-04-28 03:39 | -19.26469 | -45.67763 | 38109 ft | 408 kts | 290° |
| 2026-04-28 03:40 | -19.24554 | -45.73431 | 38116 ft | 408 kts | 290° |
| 2026-04-28 03:40 | -19.22657 | -45.79038 | 38119 ft | 408 kts | 290° |
| 2026-04-28 03:41 | -19.20736 | -45.84713 | 38123 ft | 408 kts | 290° |
| 2026-04-28 03:41 | -19.18832 | -45.90331 | 38129 ft | 408 kts | 290° |
| 2026-04-28 03:42 | -19.16924 | -45.95955 | 38138 ft | 408 kts | 290° |
| 2026-04-28 03:42 | -19.15000 | -46.01615 | 38137 ft | 407 kts | 290° |
| 2026-04-28 03:43 | -19.13094 | -46.07217 | 38142 ft | 407 kts | 290° |
| 2026-04-28 03:43 | -19.11176 | -46.12854 | 38141 ft | 407 kts | 290° |
| 2026-04-28 03:44 | -19.09263 | -46.18471 | 38151 ft | 408 kts | 290° |
| 2026-04-28 03:44 | -19.07330 | -46.24142 | 38153 ft | 408 kts | 290° |
| 2026-04-28 03:45 | -19.05415 | -46.29761 | 38154 ft | 408 kts | 290° |
| 2026-04-28 03:45 | -19.03490 | -46.35395 | 38152 ft | 407 kts | 290° |
| 2026-04-28 03:46 | -19.01560 | -46.41039 | 38152 ft | 408 kts | 290° |
| 2026-04-28 03:46 | -18.99639 | -46.46656 | 38147 ft | 408 kts | 290° |
| 2026-04-28 03:47 | -18.97713 | -46.52277 | 38143 ft | 408 kts | 290° |
| 2026-04-28 03:47 | -18.95773 | -46.57937 | 38144 ft | 408 kts | 290° |
| 2026-04-28 03:48 | -18.93853 | -46.63529 | 38145 ft | 408 kts | 290° |
| 2026-04-28 03:48 | -18.91997 | -46.69239 | 38144 ft | 409 kts | 289° |
| 2026-04-28 03:49 | -18.90189 | -46.74958 | 38145 ft | 409 kts | 289° |
| 2026-04-28 03:49 | -18.88385 | -46.80636 | 38146 ft | 409 kts | 290° |
| 2026-04-28 03:50 | -18.86577 | -46.86305 | 38149 ft | 409 kts | 289° |
| 2026-04-28 03:50 | -18.84758 | -46.92002 | 38152 ft | 409 kts | 290° |
| 2026-04-28 03:51 | -18.82937 | -46.97697 | 38156 ft | 409 kts | 290° |
| 2026-04-28 03:51 | -18.81110 | -47.03408 | 38159 ft | 410 kts | 290° |
| 2026-04-28 03:52 | -18.79293 | -47.09077 | 38157 ft | 410 kts | 290° |
| 2026-04-28 03:52 | -18.77466 | -47.14774 | 38153 ft | 410 kts | 290° |
| 2026-04-28 03:53 | -18.75642 | -47.20449 | 38146 ft | 410 kts | 289° |
| 2026-04-28 03:53 | -18.73806 | -47.26147 | 38139 ft | 410 kts | 290° |
| 2026-04-28 03:54 | -18.71968 | -47.31844 | 38138 ft | 410 kts | 290° |
| 2026-04-28 03:54 | -18.70131 | -47.37538 | 38138 ft | 410 kts | 290° |
| 2026-04-28 03:55 | -18.68305 | -47.43191 | 38137 ft | 409 kts | 290° |
| 2026-04-28 03:55 | -18.66466 | -47.48880 | 38134 ft | 410 kts | 290° |
| 2026-04-28 03:56 | -18.64626 | -47.54569 | 38132 ft | 410 kts | 290° |
| 2026-04-28 03:56 | -18.62784 | -47.60258 | 38126 ft | 410 kts | 290° |
| 2026-04-28 03:57 | -18.60935 | -47.65958 | 38121 ft | 410 kts | 290° |
| 2026-04-28 03:57 | -18.59092 | -47.71626 | 38113 ft | 409 kts | 290° |
| 2026-04-28 03:58 | -18.57252 | -47.77275 | 38106 ft | 409 kts | 290° |
| 2026-04-28 03:58 | -18.55401 | -47.82959 | 38100 ft | 410 kts | 290° |
| 2026-04-28 03:59 | -18.53549 | -47.88641 | 38095 ft | 410 kts | 290° |
| 2026-04-28 03:59 | -18.51708 | -47.94286 | 38091 ft | 410 kts | 290° |
| 2026-04-28 04:00 | -18.49844 | -47.99997 | 38087 ft | 410 kts | 290° |
| 2026-04-28 04:00 | -18.47996 | -48.05651 | 38088 ft | 410 kts | 290° |
| 2026-04-28 04:01 | -18.46136 | -48.11335 | 38093 ft | 409 kts | 290° |
| 2026-04-28 04:01 | -18.44288 | -48.16970 | 38097 ft | 410 kts | 290° |
| 2026-04-28 04:02 | -18.42425 | -48.22648 | 38102 ft | 410 kts | 290° |
| 2026-04-28 04:02 | -18.40567 | -48.28304 | 38102 ft | 410 kts | 290° |
| 2026-04-28 04:03 | -18.38703 | -48.33977 | 38097 ft | 410 kts | 290° |
| 2026-04-28 04:03 | -18.36838 | -48.39649 | 38091 ft | 410 kts | 290° |
| 2026-04-28 04:04 | -18.34974 | -48.45319 | 38083 ft | 410 kts | 290° |
| 2026-04-28 04:04 | -18.33114 | -48.50971 | 38079 ft | 410 kts | 290° |
| 2026-04-28 04:05 | -18.31248 | -48.56633 | 38075 ft | 411 kts | 290° |
| 2026-04-28 04:05 | -18.29367 | -48.62322 | 38069 ft | 410 kts | 290° |
| 2026-04-28 04:06 | -18.27483 | -48.68008 | 38069 ft | 410 kts | 290° |
| 2026-04-28 04:06 | -18.25599 | -48.73692 | 38062 ft | 410 kts | 290° |
| 2026-04-28 04:07 | -18.23728 | -48.79340 | 38055 ft | 410 kts | 290° |
| 2026-04-28 04:07 | -18.21855 | -48.84986 | 38060 ft | 410 kts | 290° |
| 2026-04-28 04:08 | -18.19980 | -48.90631 | 38051 ft | 410 kts | 290° |
| 2026-04-28 04:08 | -18.18094 | -48.96284 | 38056 ft | 409 kts | 290° |
| 2026-04-28 04:09 | -18.16200 | -49.01955 | 38051 ft | 410 kts | 290° |
| 2026-04-28 04:09 | -18.14316 | -49.07598 | 38054 ft | 411 kts | 290° |
| 2026-04-28 04:10 | -18.12416 | -49.13288 | 38064 ft | 411 kts | 290° |
| 2026-04-28 04:10 | -18.10525 | -49.18939 | 38065 ft | 411 kts | 290° |
| 2026-04-28 04:11 | -18.08624 | -49.24609 | 38074 ft | 411 kts | 290° |
| 2026-04-28 04:11 | -18.06734 | -49.30243 | 38076 ft | 410 kts | 290° |
| 2026-04-28 04:12 | -18.04838 | -49.35896 | 38070 ft | 411 kts | 290° |
| 2026-04-28 04:12 | -18.02942 | -49.41546 | 38066 ft | 411 kts | 290° |
| 2026-04-28 04:13 | -18.01046 | -49.47194 | 38054 ft | 412 kts | 290° |
| 2026-04-28 04:13 | -17.99133 | -49.52883 | 38045 ft | 412 kts | 290° |
| 2026-04-28 04:14 | -17.97229 | -49.58537 | 38043 ft | 412 kts | 290° |
| 2026-04-28 04:14 | -17.95312 | -49.64227 | 38045 ft | 412 kts | 290° |
| 2026-04-28 04:15 | -17.93393 | -49.69913 | 38045 ft | 412 kts | 290° |
| 2026-04-28 04:16 | -17.90534 | -49.78384 | 38045 ft | 412 kts | 290° |
| 2026-04-28 04:16 | -17.88597 | -49.84117 | 38044 ft | 413 kts | 290° |
| 2026-04-28 04:17 | -17.86666 | -49.89819 | 38041 ft | 413 kts | 290° |
| 2026-04-28 04:17 | -17.84745 | -49.95477 | 38040 ft | 413 kts | 290° |
| 2026-04-28 04:18 | -17.82817 | -50.01153 | 38039 ft | 413 kts | 290° |
| 2026-04-28 04:18 | -17.80891 | -50.06823 | 38036 ft | 413 kts | 290° |
| 2026-04-28 04:19 | -17.78963 | -50.12492 | 38034 ft | 413 kts | 290° |
| 2026-04-28 04:19 | -17.76998 | -50.18156 | 38036 ft | 413 kts | 290° |
| 2026-04-28 04:20 | -17.75000 | -50.23791 | 38031 ft | 413 kts | 290° |
| 2026-04-28 04:20 | -17.73006 | -50.29427 | 38033 ft | 414 kts | 290° |
| 2026-04-28 04:21 | -17.71007 | -50.35077 | 38036 ft | 414 kts | 290° |
| 2026-04-28 04:21 | -17.68995 | -50.40763 | 38044 ft | 414 kts | 290° |
| 2026-04-28 04:22 | -17.66991 | -50.46424 | 38042 ft | 415 kts | 290° |
| 2026-04-28 04:22 | -17.64990 | -50.52070 | 38046 ft | 416 kts | 290° |
| 2026-04-28 04:23 | -17.62967 | -50.57770 | 38058 ft | 417 kts | 290° |
| 2026-04-28 04:23 | -17.60939 | -50.63482 | 38061 ft | 418 kts | 290° |
| 2026-04-28 04:24 | -17.58903 | -50.69210 | 38071 ft | 417 kts | 291° |
| 2026-04-28 04:24 | -17.56884 | -50.74887 | 38075 ft | 417 kts | 291° |
| 2026-04-28 04:25 | -17.54856 | -50.80580 | 38081 ft | 417 kts | 291° |
| 2026-04-28 04:25 | -17.52823 | -50.86278 | 38089 ft | 417 kts | 291° |
| 2026-04-28 04:26 | -17.50789 | -50.91975 | 38097 ft | 417 kts | 291° |
| 2026-04-28 04:26 | -17.48761 | -50.97652 | 38109 ft | 417 kts | 290° |
| 2026-04-28 04:27 | -17.46727 | -51.03342 | 38116 ft | 417 kts | 291° |
| 2026-04-28 04:27 | -17.44690 | -51.09034 | 38118 ft | 417 kts | 291° |
| 2026-04-28 04:28 | -17.42660 | -51.14702 | 38115 ft | 417 kts | 291° |
| 2026-04-28 04:28 | -17.40618 | -51.20398 | 38110 ft | 417 kts | 291° |
| 2026-04-28 04:29 | -17.38584 | -51.26064 | 38109 ft | 417 kts | 291° |
| 2026-04-28 04:29 | -17.36540 | -51.31741 | 38109 ft | 417 kts | 291° |
| 2026-04-28 04:30 | -17.34482 | -51.37403 | 38108 ft | 416 kts | 291° |
| 2026-04-28 04:30 | -17.32419 | -51.43079 | 38110 ft | 416 kts | 291° |
| 2026-04-28 04:31 | -17.30369 | -51.48722 | 38112 ft | 416 kts | 291° |
| 2026-04-28 04:31 | -17.28314 | -51.54373 | 38114 ft | 416 kts | 291° |
| 2026-04-28 04:32 | -17.26260 | -51.60018 | 38115 ft | 416 kts | 291° |
| 2026-04-28 04:32 | -17.24201 | -51.65672 | 38116 ft | 416 kts | 291° |
| 2026-04-28 04:33 | -17.22134 | -51.71342 | 38114 ft | 416 kts | 291° |
| 2026-04-28 04:33 | -17.20075 | -51.76986 | 38111 ft | 417 kts | 291° |
| 2026-04-28 04:34 | -17.17999 | -51.82668 | 38109 ft | 417 kts | 291° |
| 2026-04-28 04:34 | -17.15936 | -51.88311 | 38105 ft | 416 kts | 291° |
| 2026-04-28 04:35 | -17.13880 | -51.93930 | 38102 ft | 416 kts | 291° |
| 2026-04-28 04:35 | -17.11816 | -51.99569 | 38100 ft | 415 kts | 291° |
| 2026-04-28 04:36 | -17.09752 | -52.05199 | 38095 ft | 416 kts | 291° |
| 2026-04-28 04:36 | -17.07681 | -52.10850 | 38086 ft | 415 kts | 291° |
| 2026-04-28 04:37 | -17.05613 | -52.16479 | 38077 ft | 416 kts | 291° |
| 2026-04-28 04:37 | -17.03536 | -52.22113 | 38065 ft | 416 kts | 291° |
| 2026-04-28 04:38 | -17.01457 | -52.27744 | 38062 ft | 416 kts | 291° |
| 2026-04-28 04:38 | -16.99372 | -52.33394 | 38058 ft | 416 kts | 291° |
| 2026-04-28 04:39 | -16.97302 | -52.39001 | 38054 ft | 416 kts | 291° |
| 2026-04-28 04:39 | -16.95225 | -52.44621 | 38050 ft | 415 kts | 291° |
| 2026-04-28 04:40 | -16.93145 | -52.50247 | 38044 ft | 415 kts | 291° |
| 2026-04-28 04:40 | -16.91062 | -52.55876 | 38041 ft | 416 kts | 291° |
| 2026-04-28 04:41 | -16.88982 | -52.61491 | 38035 ft | 416 kts | 291° |
| 2026-04-28 04:41 | -16.86879 | -52.67159 | 38031 ft | 416 kts | 291° |
| 2026-04-28 04:42 | -16.84799 | -52.72760 | 38023 ft | 416 kts | 291° |
| 2026-04-28 04:42 | -16.82703 | -52.78403 | 38020 ft | 416 kts | 291° |
| 2026-04-28 04:43 | -16.80617 | -52.84016 | 38018 ft | 416 kts | 291° |
| 2026-04-28 04:43 | -16.78519 | -52.89656 | 38014 ft | 415 kts | 291° |
| 2026-04-28 04:44 | -16.76437 | -52.95246 | 38014 ft | 415 kts | 291° |
| 2026-04-28 04:44 | -16.74348 | -53.00851 | 38012 ft | 415 kts | 291° |
| 2026-04-28 04:45 | -16.72245 | -53.06495 | 38016 ft | 415 kts | 290° |
| 2026-04-28 04:45 | -16.70507 | -53.12223 | 38023 ft | 416 kts | 284° |
| 2026-04-28 04:46 | -16.69258 | -53.18098 | 38028 ft | 417 kts | 282° |
| 2026-04-28 04:46 | -16.68052 | -53.24018 | 38034 ft | 417 kts | 282° |
| 2026-04-28 04:47 | -16.66854 | -53.29897 | 38039 ft | 417 kts | 283° |
| 2026-04-28 04:47 | -16.65647 | -53.35799 | 38039 ft | 416 kts | 283° |
| 2026-04-28 04:48 | -16.64441 | -53.41683 | 38040 ft | 416 kts | 283° |
| 2026-04-28 04:48 | -16.63232 | -53.47570 | 38039 ft | 416 kts | 283° |
| 2026-04-28 04:49 | -16.62020 | -53.53468 | 38039 ft | 415 kts | 283° |
| 2026-04-28 04:49 | -16.60811 | -53.59340 | 38039 ft | 415 kts | 282° |
| 2026-04-28 04:50 | -16.59598 | -53.65229 | 38040 ft | 415 kts | 283° |
| 2026-04-28 04:50 | -16.58381 | -53.71122 | 38040 ft | 416 kts | 283° |
| 2026-04-28 04:51 | -16.57169 | -53.76983 | 38040 ft | 416 kts | 283° |
| 2026-04-28 04:51 | -16.55946 | -53.82889 | 38031 ft | 416 kts | 283° |
| 2026-04-28 04:52 | -16.54725 | -53.88770 | 38026 ft | 416 kts | 283° |
| 2026-04-28 04:52 | -16.53506 | -53.94640 | 38017 ft | 416 kts | 283° |
| 2026-04-28 04:53 | -16.52285 | -54.00516 | 38007 ft | 416 kts | 283° |
| 2026-04-28 04:53 | -16.51055 | -54.06421 | 38000 ft | 415 kts | 283° |
| 2026-04-28 04:54 | -16.49836 | -54.12264 | 37994 ft | 415 kts | 283° |
| 2026-04-28 04:54 | -16.48603 | -54.18161 | 37995 ft | 415 kts | 283° |
| 2026-04-28 04:55 | -16.47381 | -54.24003 | 37993 ft | 416 kts | 283° |
| 2026-04-28 04:55 | -16.46147 | -54.29894 | 37991 ft | 416 kts | 283° |
| 2026-04-28 04:56 | -16.44908 | -54.35797 | 37989 ft | 417 kts | 283° |
| 2026-04-28 04:56 | -16.43671 | -54.41684 | 37987 ft | 417 kts | 283° |
| 2026-04-28 04:57 | -16.42433 | -54.47573 | 37988 ft | 417 kts | 283° |
| 2026-04-28 04:57 | -16.41199 | -54.53431 | 37989 ft | 417 kts | 283° |
| 2026-04-28 04:58 | -16.39953 | -54.59330 | 37991 ft | 417 kts | 283° |
| 2026-04-28 04:58 | -16.38705 | -54.65231 | 37992 ft | 417 kts | 283° |
| 2026-04-28 04:59 | -16.37457 | -54.71129 | 37991 ft | 418 kts | 283° |
| 2026-04-28 04:59 | -16.36204 | -54.77041 | 37985 ft | 418 kts | 283° |
| 2026-04-28 05:00 | -16.34951 | -54.82947 | 37979 ft | 419 kts | 283° |
| 2026-04-28 05:00 | -16.33695 | -54.88855 | 37973 ft | 419 kts | 283° |
| 2026-04-28 05:01 | -16.32432 | -54.94793 | 37967 ft | 419 kts | 283° |
| 2026-04-28 05:01 | -16.31178 | -55.00682 | 37958 ft | 419 kts | 284° |
| 2026-04-28 05:02 | -16.29912 | -55.06611 | 37953 ft | 419 kts | 284° |
| 2026-04-28 05:02 | -16.28654 | -55.12496 | 37960 ft | 419 kts | 283° |
| 2026-04-28 05:03 | -16.27387 | -55.18424 | 37977 ft | 419 kts | 283° |
| 2026-04-28 05:03 | -16.26126 | -55.24303 | 37990 ft | 419 kts | 283° |
| 2026-04-28 05:04 | -16.24396 | -55.30075 | 37994 ft | 417 kts | 296° |
| 2026-04-28 05:04 | -16.21696 | -55.35397 | 37998 ft | 416 kts | 298° |
| 2026-04-28 05:05 | -16.18932 | -55.40701 | 38001 ft | 416 kts | 298° |
| 2026-04-28 05:05 | -16.16180 | -55.46010 | 38002 ft | 416 kts | 298° |
| 2026-04-28 05:06 | -16.13449 | -55.51289 | 37995 ft | 417 kts | 298° |
| 2026-04-28 05:06 | -16.10704 | -55.56590 | 37987 ft | 416 kts | 298° |
| 2026-04-28 05:07 | -16.07945 | -55.61910 | 37973 ft | 416 kts | 298° |
| 2026-04-28 05:07 | -16.05203 | -55.67191 | 37967 ft | 416 kts | 298° |
| 2026-04-28 05:08 | -16.02434 | -55.72521 | 37959 ft | 415 kts | 298° |
| 2026-04-28 05:08 | -15.99703 | -55.77780 | 37961 ft | 415 kts | 298° |
| 2026-04-28 05:09 | -15.96960 | -55.83058 | 37952 ft | 415 kts | 298° |
| 2026-04-28 05:09 | -15.94218 | -55.88333 | 37942 ft | 416 kts | 298° |
| 2026-04-28 05:10 | -15.91463 | -55.93631 | 37940 ft | 416 kts | 298° |
| 2026-04-28 05:10 | -15.88697 | -55.98914 | 37938 ft | 414 kts | 301° |
| 2026-04-28 05:10 | -15.86915 | -56.01263 | 37922 ft | 407 kts | 316° |
| 2026-04-28 05:11 | -15.84642 | -56.02929 | 37934 ft | 395 kts | 333° |
| 2026-04-28 05:11 | -15.79409 | -56.04611 | 37941 ft | 393 kts | 339° |
| 2026-04-28 05:12 | -15.74381 | -56.06833 | 37949 ft | 392 kts | 332° |
| 2026-04-28 05:12 | -15.69465 | -56.09423 | 37954 ft | 393 kts | 331° |
| 2026-04-28 05:13 | -15.64611 | -56.12009 | 37952 ft | 393 kts | 331° |
| 2026-04-28 05:13 | -15.59703 | -56.14615 | 37955 ft | 394 kts | 331° |
| 2026-04-28 05:14 | -15.54807 | -56.17214 | 37953 ft | 393 kts | 331° |
| 2026-04-28 05:14 | -15.49954 | -56.19796 | 37955 ft | 393 kts | 331° |
| 2026-04-28 05:15 | -15.45081 | -56.22388 | 37953 ft | 393 kts | 331° |
| 2026-04-28 05:15 | -15.40175 | -56.24992 | 37955 ft | 394 kts | 331° |
| 2026-04-28 05:16 | -15.35294 | -56.27579 | 37959 ft | 394 kts | 331° |
| 2026-04-28 05:16 | -15.30410 | -56.30168 | 37959 ft | 394 kts | 331° |
| 2026-04-28 05:17 | -15.23072 | -56.34064 | 37958 ft | 394 kts | 331° |
| 2026-04-28 05:17 | -15.18195 | -56.36657 | 37959 ft | 394 kts | 331° |
| 2026-04-28 05:18 | -15.13299 | -56.39261 | 37958 ft | 394 kts | 331° |
| 2026-04-28 05:18 | -15.08398 | -56.41877 | 37962 ft | 394 kts | 331° |
| 2026-04-28 05:19 | -15.03524 | -56.44461 | 37960 ft | 394 kts | 331° |
| 2026-04-28 05:19 | -14.98613 | -56.47057 | 37958 ft | 394 kts | 331° |
| 2026-04-28 05:20 | -14.93740 | -56.49633 | 37961 ft | 394 kts | 331° |
| 2026-04-28 05:20 | -14.88830 | -56.52228 | 37962 ft | 394 kts | 331° |
| 2026-04-28 05:21 | -14.83882 | -56.54841 | 37969 ft | 395 kts | 331° |
| 2026-04-28 05:21 | -14.78972 | -56.57439 | 37970 ft | 395 kts | 331° |
| 2026-04-28 05:22 | -14.74066 | -56.60030 | 37969 ft | 395 kts | 331° |
| 2026-04-28 05:22 | -14.69175 | -56.62605 | 37966 ft | 395 kts | 331° |
| 2026-04-28 05:23 | -14.64271 | -56.65178 | 37964 ft | 395 kts | 332° |
| 2026-04-28 05:23 | -14.59297 | -56.67783 | 37961 ft | 395 kts | 332° |
| 2026-04-28 05:24 | -14.54390 | -56.70349 | 37964 ft | 395 kts | 332° |
| 2026-04-28 05:24 | -14.49476 | -56.72919 | 37962 ft | 395 kts | 332° |
| 2026-04-28 05:25 | -14.44556 | -56.75490 | 37962 ft | 396 kts | 332° |
| 2026-04-28 05:25 | -14.39623 | -56.78066 | 37969 ft | 396 kts | 332° |
| 2026-04-28 05:26 | -14.34689 | -56.80641 | 37971 ft | 396 kts | 332° |
| 2026-04-28 05:26 | -14.29789 | -56.83196 | 37976 ft | 396 kts | 332° |
| 2026-04-28 05:27 | -14.24855 | -56.85760 | 37973 ft | 396 kts | 332° |
| 2026-04-28 05:27 | -14.19919 | -56.88326 | 37975 ft | 396 kts | 332° |
| 2026-04-28 05:28 | -14.15011 | -56.90880 | 37973 ft | 396 kts | 332° |
| 2026-04-28 05:28 | -14.10087 | -56.93456 | 37976 ft | 396 kts | 332° |
| 2026-04-28 05:29 | -14.05142 | -56.96047 | 37983 ft | 397 kts | 332° |
| 2026-04-28 05:29 | -14.00224 | -56.98624 | 37982 ft | 396 kts | 332° |
| 2026-04-28 05:30 | -13.95285 | -57.01201 | 37989 ft | 396 kts | 332° |
| 2026-04-28 05:30 | -13.90375 | -57.03755 | 38002 ft | 396 kts | 332° |
| 2026-04-28 05:31 | -13.85414 | -57.06330 | 38003 ft | 396 kts | 332° |
| 2026-04-28 05:31 | -13.80484 | -57.08886 | 37988 ft | 396 kts | 332° |
| 2026-04-28 05:32 | -13.75547 | -57.11447 | 37984 ft | 397 kts | 332° |
| 2026-04-28 05:32 | -13.70608 | -57.14017 | 37983 ft | 398 kts | 332° |
| 2026-04-28 05:33 | -13.65634 | -57.16604 | 37981 ft | 397 kts | 332° |
| 2026-04-28 05:33 | -13.60688 | -57.19173 | 37981 ft | 398 kts | 332° |
| 2026-04-28 05:34 | -13.55748 | -57.21728 | 37980 ft | 398 kts | 332° |
| 2026-04-28 05:34 | -13.50774 | -57.24286 | 37977 ft | 398 kts | 332° |
| 2026-04-28 05:35 | -13.45824 | -57.26824 | 37975 ft | 398 kts | 332° |
| 2026-04-28 05:35 | -13.40842 | -57.29375 | 37978 ft | 399 kts | 332° |
| 2026-04-28 05:36 | -13.35852 | -57.31939 | 37978 ft | 398 kts | 332° |
| 2026-04-28 05:36 | -13.30891 | -57.34488 | 37977 ft | 398 kts | 332° |
| 2026-04-28 05:37 | -13.25903 | -57.37038 | 37974 ft | 399 kts | 332° |
| 2026-04-28 05:37 | -13.20935 | -57.39572 | 37978 ft | 400 kts | 332° |
| 2026-04-28 05:38 | -13.15920 | -57.42120 | 37977 ft | 400 kts | 332° |
| 2026-04-28 05:38 | -13.10923 | -57.44652 | 37977 ft | 401 kts | 332° |
| 2026-04-28 05:39 | -13.05917 | -57.47185 | 37976 ft | 400 kts | 332° |
| 2026-04-28 05:39 | -13.00933 | -57.49707 | 37981 ft | 400 kts | 332° |
| 2026-04-28 05:40 | -12.95927 | -57.52242 | 37973 ft | 400 kts | 332° |
| 2026-04-28 05:40 | -12.90929 | -57.54774 | 37976 ft | 400 kts | 332° |
| 2026-04-28 05:41 | -12.85859 | -57.57335 | 37982 ft | 401 kts | 332° |
| 2026-04-28 05:41 | -12.80831 | -57.59861 | 37981 ft | 401 kts | 332° |
| 2026-04-28 05:42 | -12.75805 | -57.62385 | 37989 ft | 401 kts | 332° |
| 2026-04-28 05:42 | -12.70791 | -57.64888 | 37986 ft | 401 kts | 332° |
| 2026-04-28 05:43 | -12.65735 | -57.67428 | 37986 ft | 400 kts | 332° |
| 2026-04-28 05:43 | -12.60738 | -57.69942 | 37985 ft | 401 kts | 332° |
| 2026-04-28 05:44 | -12.55711 | -57.72469 | 37986 ft | 401 kts | 332° |
| 2026-04-28 05:44 | -12.50674 | -57.74998 | 37986 ft | 402 kts | 332° |
| 2026-04-28 05:45 | -12.45652 | -57.77522 | 37988 ft | 402 kts | 332° |
| 2026-04-28 05:45 | -12.40608 | -57.80054 | 37983 ft | 402 kts | 332° |
| 2026-04-28 05:46 | -12.35570 | -57.82579 | 37980 ft | 402 kts | 332° |
| 2026-04-28 05:46 | -12.30519 | -57.85112 | 37981 ft | 402 kts | 332° |
| 2026-04-28 05:47 | -12.25501 | -57.87631 | 37977 ft | 402 kts | 332° |
| 2026-04-28 05:47 | -12.20472 | -57.90161 | 37975 ft | 402 kts | 332° |
| 2026-04-28 05:48 | -12.15451 | -57.92695 | 37973 ft | 403 kts | 332° |
| 2026-04-28 05:48 | -12.10391 | -57.95251 | 37972 ft | 404 kts | 332° |
| 2026-04-28 05:49 | -12.05349 | -57.97795 | 37977 ft | 403 kts | 332° |
| 2026-04-28 05:49 | -12.00304 | -58.00333 | 37972 ft | 403 kts | 332° |
| 2026-04-28 05:50 | -11.95255 | -58.02861 | 37967 ft | 403 kts | 332° |
| 2026-04-28 05:50 | -11.90234 | -58.05380 | 37967 ft | 403 kts | 332° |
| 2026-04-28 05:51 | -11.85178 | -58.07926 | 37962 ft | 403 kts | 332° |
| 2026-04-28 05:51 | -11.80150 | -58.10461 | 37959 ft | 403 kts | 332° |
| 2026-04-28 05:52 | -11.75111 | -58.13017 | 37959 ft | 403 kts | 332° |
| 2026-04-28 05:52 | -11.70078 | -58.15573 | 37959 ft | 402 kts | 332° |
| 2026-04-28 05:53 | -11.65089 | -58.18100 | 37958 ft | 401 kts | 332° |
| 2026-04-28 05:53 | -11.60065 | -58.20642 | 37959 ft | 401 kts | 332° |
| 2026-04-28 05:54 | -11.55054 | -58.23180 | 37961 ft | 402 kts | 332° |
| 2026-04-28 05:54 | -11.50031 | -58.25722 | 37965 ft | 402 kts | 332° |
| 2026-04-28 05:55 | -11.44982 | -58.28285 | 37961 ft | 402 kts | 332° |
| 2026-04-28 05:55 | -11.39978 | -58.30829 | 37960 ft | 402 kts | 332° |
| 2026-04-28 05:56 | -11.34959 | -58.33391 | 37955 ft | 401 kts | 332° |
| 2026-04-28 05:56 | -11.29996 | -58.35930 | 37953 ft | 401 kts | 332° |
| 2026-04-28 05:57 | -11.24971 | -58.38495 | 37948 ft | 401 kts | 332° |
| 2026-04-28 05:57 | -11.20003 | -58.41025 | 37949 ft | 401 kts | 332° |
| 2026-04-28 05:58 | -11.15000 | -58.43571 | 37950 ft | 401 kts | 332° |
| 2026-04-28 05:58 | -11.09989 | -58.46123 | 37949 ft | 401 kts | 332° |
| 2026-04-28 05:59 | -11.04969 | -58.48686 | 37946 ft | 401 kts | 332° |
| 2026-04-28 05:59 | -10.99997 | -58.51231 | 37948 ft | 400 kts | 332° |
| 2026-04-28 06:00 | -10.95002 | -58.53797 | 37946 ft | 400 kts | 332° |
| 2026-04-28 06:00 | -10.90018 | -58.56359 | 37946 ft | 400 kts | 332° |
| 2026-04-28 06:01 | -10.85030 | -58.58913 | 37945 ft | 400 kts | 332° |
| 2026-04-28 06:01 | -10.80026 | -58.61467 | 37944 ft | 401 kts | 332° |
| 2026-04-28 06:02 | -10.75026 | -58.64023 | 37944 ft | 400 kts | 332° |
| 2026-04-28 06:02 | -10.70037 | -58.66574 | 37944 ft | 400 kts | 332° |
| 2026-04-28 06:03 | -10.65074 | -58.69111 | 37946 ft | 400 kts | 333° |
| 2026-04-28 06:03 | -10.60074 | -58.71668 | 37946 ft | 400 kts | 333° |
| 2026-04-28 06:04 | -10.55093 | -58.74216 | 37944 ft | 399 kts | 333° |
| 2026-04-28 06:04 | -10.50132 | -58.76760 | 37947 ft | 399 kts | 333° |
| 2026-04-28 06:05 | -10.45167 | -58.79310 | 37946 ft | 399 kts | 333° |
| 2026-04-28 06:05 | -10.40198 | -58.81865 | 37948 ft | 399 kts | 333° |
| 2026-04-28 06:06 | -10.35247 | -58.84416 | 37948 ft | 399 kts | 333° |
| 2026-04-28 06:06 | -10.30303 | -58.86968 | 37947 ft | 399 kts | 333° |
| 2026-04-28 06:07 | -10.25322 | -58.89544 | 37948 ft | 399 kts | 333° |
| 2026-04-28 06:07 | -10.20394 | -58.92101 | 37946 ft | 399 kts | 333° |
| 2026-04-28 06:08 | -10.15456 | -58.94684 | 37944 ft | 399 kts | 333° |
| 2026-04-28 06:08 | -10.10503 | -58.97295 | 37941 ft | 399 kts | 333° |
| 2026-04-28 06:09 | -10.05590 | -58.99884 | 37938 ft | 400 kts | 333° |
| 2026-04-28 06:09 | -10.00625 | -59.02492 | 37935 ft | 400 kts | 333° |
| 2026-04-28 06:10 | -9.95673 | -59.05080 | 37931 ft | 400 kts | 333° |
| 2026-04-28 06:10 | -9.90720 | -59.07661 | 37932 ft | 400 kts | 333° |
| 2026-04-28 06:11 | -9.85753 | -59.10262 | 37921 ft | 399 kts | 333° |
| 2026-04-28 06:11 | -9.80802 | -59.12861 | 37920 ft | 399 kts | 333° |
| 2026-04-28 06:12 | -9.75864 | -59.15447 | 37920 ft | 400 kts | 333° |
| 2026-04-28 06:12 | -9.70912 | -59.18026 | 37920 ft | 400 kts | 333° |
| 2026-04-28 06:13 | -9.65922 | -59.20609 | 37916 ft | 400 kts | 333° |
| 2026-04-28 06:13 | -9.60975 | -59.23158 | 37920 ft | 400 kts | 333° |
| 2026-04-28 06:14 | -9.55996 | -59.25717 | 37918 ft | 399 kts | 333° |
| 2026-04-28 06:14 | -9.51010 | -59.28280 | 37918 ft | 399 kts | 333° |
| 2026-04-28 06:15 | -9.46048 | -59.30838 | 37915 ft | 399 kts | 333° |
| 2026-04-28 06:15 | -9.41090 | -59.33393 | 37917 ft | 399 kts | 333° |
| 2026-04-28 06:16 | -9.36149 | -59.35935 | 37919 ft | 399 kts | 333° |
| 2026-04-28 06:16 | -9.31160 | -59.38489 | 37923 ft | 400 kts | 333° |
| 2026-04-28 06:17 | -9.26173 | -59.41038 | 37918 ft | 400 kts | 333° |
| 2026-04-28 06:18 | -9.18735 | -59.44835 | 37919 ft | 400 kts | 333° |
| 2026-04-28 06:18 | -9.13737 | -59.47400 | 37922 ft | 400 kts | 333° |
| 2026-04-28 06:19 | -9.08791 | -59.49937 | 37923 ft | 400 kts | 333° |
| 2026-04-28 06:19 | -9.03813 | -59.52482 | 37927 ft | 399 kts | 333° |
| 2026-04-28 06:20 | -8.98863 | -59.55006 | 37923 ft | 399 kts | 333° |
| 2026-04-28 06:20 | -8.93888 | -59.57541 | 37922 ft | 398 kts | 333° |
| 2026-04-28 06:21 | -8.88934 | -59.60102 | 37925 ft | 401 kts | 333° |
| 2026-04-28 06:21 | -8.83939 | -59.62744 | 37922 ft | 404 kts | 333° |
| 2026-04-28 06:22 | -8.78967 | -59.65353 | 37925 ft | 403 kts | 333° |
| 2026-04-28 06:22 | -8.73957 | -59.67916 | 37918 ft | 399 kts | 333° |
| 2026-04-28 06:23 | -8.68956 | -59.70439 | 37921 ft | 400 kts | 333° |
| 2026-04-28 06:23 | -8.63947 | -59.72940 | 37917 ft | 401 kts | 333° |
| 2026-04-28 06:24 | -8.58905 | -59.75460 | 37915 ft | 407 kts | 333° |
| 2026-04-28 06:24 | -8.53824 | -59.78028 | 37914 ft | 411 kts | 333° |
| 2026-04-28 06:25 | -8.48688 | -59.80629 | 37913 ft | 410 kts | 333° |
| 2026-04-28 06:25 | -8.43559 | -59.83228 | 37913 ft | 411 kts | 333° |
| 2026-04-28 06:26 | -8.38451 | -59.85789 | 37913 ft | 409 kts | 333° |
| 2026-04-28 06:26 | -8.33348 | -59.88314 | 37916 ft | 408 kts | 333° |
| 2026-04-28 06:27 | -8.28218 | -59.90847 | 37915 ft | 408 kts | 333° |
| 2026-04-28 06:27 | -8.23119 | -59.93366 | 37923 ft | 408 kts | 333° |
| 2026-04-28 06:28 | -8.17996 | -59.95906 | 37922 ft | 409 kts | 333° |
| 2026-04-28 06:28 | -8.12870 | -59.98461 | 37921 ft | 410 kts | 333° |
| 2026-04-28 06:29 | -8.07771 | -60.01001 | 37922 ft | 409 kts | 333° |
| 2026-04-28 06:29 | -8.02651 | -60.03546 | 37917 ft | 408 kts | 333° |
| 2026-04-28 06:30 | -7.97548 | -60.06078 | 37919 ft | 408 kts | 333° |
| 2026-04-28 06:30 | -7.92441 | -60.08612 | 37916 ft | 409 kts | 333° |
| 2026-04-28 06:31 | -7.87307 | -60.11173 | 37915 ft | 410 kts | 333° |
| 2026-04-28 06:31 | -7.82181 | -60.13749 | 37916 ft | 410 kts | 333° |
| 2026-04-28 06:32 | -7.77083 | -60.16316 | 37906 ft | 410 kts | 333° |
| 2026-04-28 06:32 | -7.71948 | -60.18909 | 37898 ft | 410 kts | 333° |
| 2026-04-28 06:33 | -7.66838 | -60.21493 | 37897 ft | 410 kts | 333° |
| 2026-04-28 06:33 | -7.61735 | -60.24085 | 37895 ft | 409 kts | 333° |
| 2026-04-28 06:34 | -7.56646 | -60.26678 | 37900 ft | 409 kts | 333° |
| 2026-04-28 06:34 | -7.51535 | -60.29284 | 37898 ft | 409 kts | 333° |
| 2026-04-28 06:35 | -7.46469 | -60.31868 | 37900 ft | 409 kts | 333° |
| 2026-04-28 06:35 | -7.41366 | -60.34467 | 37899 ft | 409 kts | 333° |
| 2026-04-28 06:36 | -7.36290 | -60.37060 | 37899 ft | 409 kts | 333° |
| 2026-04-28 06:36 | -7.31186 | -60.39678 | 37904 ft | 409 kts | 333° |
| 2026-04-28 06:37 | -7.26117 | -60.42282 | 37900 ft | 408 kts | 333° |
| 2026-04-28 06:37 | -7.21064 | -60.44877 | 37896 ft | 408 kts | 333° |
| 2026-04-28 06:38 | -7.15993 | -60.47478 | 37896 ft | 408 kts | 333° |
| 2026-04-28 06:38 | -7.10910 | -60.50081 | 37898 ft | 408 kts | 333° |
| 2026-04-28 06:39 | -7.05858 | -60.52663 | 37897 ft | 408 kts | 333° |
| 2026-04-28 06:39 | -7.00761 | -60.55262 | 37902 ft | 408 kts | 333° |
| 2026-04-28 06:40 | -6.95691 | -60.57854 | 37910 ft | 407 kts | 333° |
| 2026-04-28 06:40 | -6.90648 | -60.60438 | 37898 ft | 406 kts | 333° |
| 2026-04-28 06:41 | -6.85553 | -60.63040 | 37897 ft | 407 kts | 333° |
| 2026-04-28 06:41 | -6.80500 | -60.65610 | 37896 ft | 407 kts | 333° |
| 2026-04-28 06:42 | -6.75415 | -60.68190 | 37896 ft | 407 kts | 333° |
| 2026-04-28 06:42 | -6.70361 | -60.70754 | 37900 ft | 407 kts | 333° |
| 2026-04-28 06:43 | -6.65294 | -60.73327 | 37897 ft | 407 kts | 333° |
| 2026-04-28 06:43 | -6.60212 | -60.75912 | 37898 ft | 407 kts | 333° |
| 2026-04-28 06:44 | -6.55156 | -60.78482 | 37899 ft | 406 kts | 333° |
| 2026-04-28 06:44 | -6.50108 | -60.81043 | 37901 ft | 406 kts | 333° |
| 2026-04-28 06:45 | -6.45057 | -60.83602 | 37901 ft | 406 kts | 334° |
| 2026-04-28 06:45 | -6.40011 | -60.86163 | 37900 ft | 405 kts | 333° |
| 2026-04-28 06:46 | -6.34969 | -60.88729 | 37904 ft | 405 kts | 333° |
| 2026-04-28 06:46 | -6.29909 | -60.91303 | 37901 ft | 405 kts | 333° |
| 2026-04-28 06:47 | -6.24854 | -60.93865 | 37898 ft | 405 kts | 333° |
| 2026-04-28 06:47 | -6.19810 | -60.96404 | 37899 ft | 405 kts | 334° |
| 2026-04-28 06:48 | -6.14759 | -60.98942 | 37902 ft | 405 kts | 334° |
| 2026-04-28 06:48 | -6.09690 | -61.01500 | 37900 ft | 406 kts | 334° |
| 2026-04-28 06:49 | -6.04661 | -61.04046 | 37898 ft | 405 kts | 334° |
| 2026-04-28 06:49 | -5.99610 | -61.06604 | 37904 ft | 404 kts | 334° |
| 2026-04-28 06:50 | -5.94585 | -61.09150 | 37903 ft | 405 kts | 334° |
| 2026-04-28 06:50 | -5.89525 | -61.11708 | 37901 ft | 405 kts | 334° |
| 2026-04-28 06:51 | -5.84475 | -61.14261 | 37886 ft | 405 kts | 334° |
| 2026-04-28 06:51 | -5.79408 | -61.16811 | 37883 ft | 405 kts | 334° |
| 2026-04-28 06:52 | -5.74395 | -61.19347 | 37881 ft | 404 kts | 334° |
| 2026-04-28 06:52 | -5.69370 | -61.21900 | 37876 ft | 403 kts | 334° |
| 2026-04-28 06:53 | -5.64370 | -61.24446 | 37879 ft | 402 kts | 334° |
| 2026-04-28 06:53 | -5.59339 | -61.27005 | 37877 ft | 402 kts | 334° |
| 2026-04-28 06:54 | -5.54362 | -61.29535 | 37880 ft | 403 kts | 334° |
| 2026-04-28 06:54 | -5.49317 | -61.32100 | 37880 ft | 403 kts | 334° |
| 2026-04-28 06:55 | -5.44333 | -61.34639 | 37881 ft | 403 kts | 334° |
| 2026-04-28 06:55 | -5.39313 | -61.37197 | 37886 ft | 402 kts | 334° |
| 2026-04-28 06:56 | -5.34315 | -61.39748 | 37888 ft | 401 kts | 334° |
| 2026-04-28 06:56 | -5.29359 | -61.42262 | 37892 ft | 400 kts | 334° |
| 2026-04-28 06:57 | -5.24375 | -61.44783 | 37894 ft | 400 kts | 334° |
| 2026-04-28 06:57 | -5.19388 | -61.47298 | 37895 ft | 400 kts | 334° |
| 2026-04-28 06:58 | -5.14426 | -61.49812 | 37898 ft | 400 kts | 334° |
| 2026-04-28 06:58 | -5.09444 | -61.52338 | 37897 ft | 400 kts | 334° |
| 2026-04-28 06:59 | -5.04471 | -61.54857 | 37898 ft | 400 kts | 334° |
| 2026-04-28 06:59 | -4.99480 | -61.57371 | 37898 ft | 400 kts | 334° |
| 2026-04-28 07:00 | -4.94483 | -61.59880 | 37896 ft | 399 kts | 334° |
| 2026-04-28 07:00 | -4.89513 | -61.62369 | 37896 ft | 399 kts | 334° |
| 2026-04-28 07:01 | -4.84513 | -61.64883 | 37895 ft | 399 kts | 334° |
| 2026-04-28 07:01 | -4.79517 | -61.67410 | 37897 ft | 400 kts | 334° |
| 2026-04-28 07:02 | -4.74552 | -61.69929 | 37896 ft | 400 kts | 334° |
| 2026-04-28 07:02 | -4.69568 | -61.72464 | 37896 ft | 400 kts | 334° |
| 2026-04-28 07:03 | -4.64595 | -61.74981 | 37897 ft | 401 kts | 334° |
| 2026-04-28 07:03 | -4.59588 | -61.77505 | 37897 ft | 402 kts | 334° |
| 2026-04-28 07:04 | -4.54598 | -61.80018 | 37898 ft | 402 kts | 334° |
| 2026-04-28 07:04 | -4.49567 | -61.82552 | 37896 ft | 402 kts | 334° |
| 2026-04-28 07:05 | -4.44561 | -61.85077 | 37895 ft | 402 kts | 334° |
| 2026-04-28 07:05 | -4.39573 | -61.87597 | 37895 ft | 403 kts | 334° |
| 2026-04-28 07:06 | -4.34528 | -61.90142 | 37895 ft | 403 kts | 334° |
| 2026-04-28 07:06 | -4.29509 | -61.92666 | 37896 ft | 403 kts | 334° |
| 2026-04-28 07:07 | -4.24496 | -61.95185 | 37895 ft | 403 kts | 334° |
| 2026-04-28 07:07 | -4.19472 | -61.97710 | 37896 ft | 403 kts | 334° |
| 2026-04-28 07:08 | -4.14422 | -62.00244 | 37897 ft | 404 kts | 334° |
| 2026-04-28 07:08 | -4.09371 | -62.02773 | 37891 ft | 405 kts | 334° |
| 2026-04-28 07:09 | -4.04323 | -62.05292 | 37885 ft | 405 kts | 334° |
| 2026-04-28 07:09 | -3.99267 | -62.07812 | 37879 ft | 405 kts | 334° |
| 2026-04-28 07:10 | -3.94190 | -62.10337 | 37875 ft | 405 kts | 334° |
| 2026-04-28 07:10 | -3.89136 | -62.12842 | 37876 ft | 405 kts | 334° |
| 2026-04-28 07:11 | -3.84020 | -62.15377 | 37877 ft | 405 kts | 334° |
| 2026-04-28 07:11 | -3.78982 | -62.17886 | 37874 ft | 400 kts | 334° |
| 2026-04-28 07:12 | -3.74080 | -62.20372 | 37872 ft | 390 kts | 334° |
| 2026-04-28 07:12 | -3.69276 | -62.22821 | 37872 ft | 380 kts | 334° |
| 2026-04-28 07:13 | -3.64611 | -62.25201 | 37872 ft | 371 kts | 334° |
| 2026-04-28 07:13 | -3.60072 | -62.27518 | 37872 ft | 362 kts | 334° |
| 2026-04-28 07:14 | -3.55639 | -62.29779 | 37871 ft | 352 kts | 334° |
| 2026-04-28 07:14 | -3.51322 | -62.31990 | 37869 ft | 343 kts | 334° |
| 2026-04-28 07:15 | -3.47100 | -62.34152 | 37869 ft | 334 kts | 334° |
| 2026-04-28 07:15 | -3.43014 | -62.36240 | 37868 ft | 324 kts | 334° |
| 2026-04-28 07:16 | -3.39027 | -62.38278 | 37385 ft | 330 kts | 334° |
| 2026-04-28 07:16 | -3.36933 | -62.39342 | 36787 ft | 342 kts | 335° |
| 2026-04-28 07:16 | -3.34767 | -62.40378 | 36175 ft | 344 kts | 343° |
| 2026-04-28 07:16 | -3.32420 | -62.40487 | 34006 ft | 368 kts | 40° |
| 2026-04-28 07:17 | -3.32339 | -62.38695 | 27917 ft | 476 kts | 137° |
| 2026-04-28 07:17 | -3.33955 | -62.38238 | 15932 ft | 618 kts | 189° |
| 2026-04-28 07:17 | -3.34418 | -62.39660 | 1871 ft | 634 kts | 289° |
| 2026-04-28 07:17 | -3.34290 | -62.40025 | 194 ft | 0 kts | 241° |
| 2026-04-28 07:18 | -3.34280 | -62.40027 | 163 ft | 0 kts | 185° |
| 2026-04-28 07:23 | -3.34280 | -62.40028 | 163 ft | 0 kts | 185° |
| 2026-04-28 07:29 | -3.34279 | -62.40028 | 163 ft | 0 kts | 185° |
| 2026-04-28 07:32 | -3.34279 | -62.40029 | 162 ft | 0 kts | 185° |
| 2026-04-28 07:41 | -3.34278 | -62.40029 | 162 ft | 0 kts | 185° |
| 2026-04-28 07:42 | -3.34278 | -62.40030 | 162 ft | 0 kts | 185° |
| 2026-04-28 07:49 | -3.34278 | -62.40031 | 162 ft | 0 kts | 185° |
| 2026-04-28 07:54 | -3.34277 | -62.40031 | 162 ft | 0 kts | 185° |
| 2026-04-28 07:59 | -3.34277 | -62.40032 | 162 ft | 0 kts | 185° |
| 2026-04-28 08:05 | -3.34277 | -62.40033 | 162 ft | 0 kts | 185° |
| 2026-04-28 08:06 | -3.34276 | -62.40033 | 162 ft | 0 kts | 185° |
| 2026-04-28 08:15 | -3.34276 | -62.40034 | 162 ft | 0 kts | 185° |
| 2026-04-28 08:18 | -3.34275 | -62.40034 | 162 ft | 0 kts | 185° |
| 2026-04-28 08:22 | -3.34275 | -62.40035 | 162 ft | 0 kts | 185° |
| 2026-04-28 08:31 | -3.34274 | -62.40035 | 162 ft | 0 kts | 185° |
| 2026-04-28 08:31 | -3.34274 | -62.40036 | 162 ft | 0 kts | 185° |
| 2026-04-28 08:41 | -3.34274 | -62.40037 | 162 ft | 0 kts | 185° |
| 2026-04-28 08:44 | -3.34273 | -62.40037 | 162 ft | 0 kts | 185° |
| 2026-04-28 08:51 | -3.34273 | -62.40038 | 161 ft | 0 kts | 185° |
| 2026-04-28 08:57 | -3.34272 | -62.40039 | 161 ft | 0 kts | 185° |
| 2026-04-28 09:07 | -3.34272 | -62.40040 | 161 ft | 0 kts | 185° |
| 2026-04-28 09:10 | -3.34271 | -62.40040 | 161 ft | 0 kts | 185° |
| 2026-04-28 09:14 | -3.34271 | -62.40041 | 161 ft | 0 kts | 185° |
| 2026-04-28 09:23 | -3.34270 | -62.40041 | 161 ft | 0 kts | 185° |
| 2026-04-28 09:24 | -3.34270 | -62.40042 | 161 ft | 0 kts | 185° |
| 2026-04-28 09:33 | -3.34270 | -62.40043 | 161 ft | 0 kts | 185° |
| 2026-04-28 09:34 | -3.34269 | -62.40043 | 161 ft | 0 kts | 185° |
| 2026-04-28 09:40 | -3.34269 | -62.40044 | 161 ft | 0 kts | 185° |